Time,TemperatureF,DewpointF,PressureIn,WindDirection,WindDirectionDegrees,WindSpeedMPH,WindSpeedGustMPH,Humidity,HourlyPrecipIn,Conditions,Clouds,dailyrainin,SoftwareType,DateUTC
2013-11-15 00:09:00,41.7,36.0,29.86,West,259,8.0,11.0,80,0.00,,,0.00,weatherlink.com 1.10,2013-11-15 05:09:00,
2013-11-15 00:24:00,41.8,36.0,29.86,SSW,210,2.0,9.0,80,0.00,,,0.00,weatherlink.com 1.10,2013-11-15 05:24:00,
2013-11-15 00:39:00,41.8,36.0,29.86,SW,216,3.0,9.0,80,0.00,,,0.00,weatherlink.com 1.10,2013-11-15 05:39:00,
2013-11-15 00:54:00,41.9,37.0,29.86,SSW,203,2.0,9.0,81,0.00,,,0.00,weatherlink.com 1.10,2013-11-15 05:54:00,
2013-11-15 01:09:00,42.0,37.0,29.86,WSW,254,2.0,8.0,81,0.00,,,0.00,weatherlink.com 1.10,2013-11-15 06:09:00,
2013-11-15 01:24:00,42.1,37.0,29.86,WSW,255,5.0,11.0,81,0.00,,,0.00,weatherlink.com 1.10,2013-11-15 06:24:00,
2013-11-15 01:39:00,42.3,37.0,29.86,SSW,198,2.0,9.0,81,0.00,,,0.00,weatherlink.com 1.10,2013-11-15 06:39:00,
2013-11-15 01:54:00,42.3,37.0,29.86,WSW,248,1.0,10.0,82,0.00,,,0.00,weatherlink.com 1.10,2013-11-15 06:54:00,
2013-11-15 02:10:00,42.3,37.0,29.86,SW,217,4.0,7.0,82,0.00,,,0.00,weatherlink.com 1.10,2013-11-15 07:10:00,
2013-11-15 02:24:00,42.2,37.0,29.86,SSW,196,2.0,6.0,83,0.00,,,0.00,weatherlink.com 1.10,2013-11-15 07:24:00,
2013-11-15 02:40:00,42.0,37.0,29.86,SSW,193,4.0,7.0,83,0.00,,,0.00,weatherlink.com 1.10,2013-11-15 07:40:00,
2013-11-15 02:55:00,41.7,37.0,29.86,SSW,198,3.0,7.0,83,0.00,,,0.00,weatherlink.com 1.10,2013-11-15 07:55:00,
2013-11-15 03:10:00,41.4,37.0,29.86,SSW,198,4.0,7.0,84,0.00,,,0.00,weatherlink.com 1.10,2013-11-15 08:10:00,
2013-11-15 03:25:00,41.3,37.0,29.85,SW,215,3.0,7.0,85,0.00,,,0.00,weatherlink.com 1.10,2013-11-15 08:25:00,
2013-11-15 03:40:00,41.1,37.0,29.85,South,189,1.0,6.0,85,0.00,,,0.00,weatherlink.com 1.10,2013-11-15 08:40:00,
2013-11-15 03:55:00,41.2,37.0,29.85,SW,223,4.0,8.0,85,0.00,,,0.00,weatherlink.com 1.10,2013-11-15 08:55:00,
2013-11-15 04:10:00,41.6,37.0,29.85,WSW,237,4.0,10.0,84,0.00,,,0.00,weatherlink.com 1.10,2013-11-15 09:10:00,
2013-11-15 04:25:00,41.6,37.0,29.85,SW,217,4.0,8.0,84,0.00,,,0.00,weatherlink.com 1.10,2013-11-15 09:25:00,
2013-11-15 04:40:00,41.3,37.0,29.85,SSE,157,3.0,13.0,84,0.00,,,0.00,weatherlink.com 1.10,2013-11-15 09:40:00,
2013-11-15 04:55:00,41.3,37.0,29.85,SSE,161,4.0,10.0,85,0.00,,,0.00,weatherlink.com 1.10,2013-11-15 09:55:00,
2013-11-15 05:10:00,41.3,37.0,29.86,SSW,204,7.0,12.0,85,0.00,,,0.00,weatherlink.com 1.10,2013-11-15 10:10:00,
2013-11-15 05:25:00,41.3,37.0,29.86,South,171,4.0,12.0,85,0.00,,,0.00,weatherlink.com 1.10,2013-11-15 10:25:00,
2013-11-15 05:40:00,41.3,37.0,29.85,South,187,4.0,11.0,85,0.00,,,0.00,weatherlink.com 1.10,2013-11-15 10:40:00,
2013-11-15 05:55:00,41.3,37.0,29.85,SSE,162,3.0,11.0,85,0.00,,,0.00,weatherlink.com 1.10,2013-11-15 10:55:00,
2013-11-15 06:10:00,41.2,37.0,29.86,South,184,3.0,7.0,85,0.00,,,0.00,weatherlink.com 1.10,2013-11-15 11:10:00,
2013-11-15 06:25:00,41.2,37.0,29.86,South,171,3.0,7.0,85,0.00,,,0.00,weatherlink.com 1.10,2013-11-15 11:25:00,
2013-11-15 06:40:00,41.1,37.0,29.86,SSW,202,5.0,9.0,85,0.00,,,0.00,weatherlink.com 1.10,2013-11-15 11:40:00,
2013-11-15 06:55:00,41.0,37.0,29.87,South,183,3.0,7.0,85,0.00,,,0.00,weatherlink.com 1.10,2013-11-15 11:55:00,
2013-11-15 07:10:00,40.9,37.0,29.88,SSW,192,5.0,6.0,86,0.00,,,0.00,weatherlink.com 1.10,2013-11-15 12:10:00,
2013-11-15 07:25:00,40.9,37.0,29.88,SSE,161,0.0,4.0,86,0.00,,,0.00,weatherlink.com 1.10,2013-11-15 12:25:00,
2013-11-15 07:40:00,40.7,37.0,29.88,South,171,1.0,3.0,87,0.00,,,0.00,weatherlink.com 1.10,2013-11-15 12:40:00,
2013-11-15 07:55:00,40.9,37.0,29.89,South,175,0.0,3.0,86,0.00,,,0.00,weatherlink.com 1.10,2013-11-15 12:55:00,
2013-11-15 08:10:00,41.2,37.0,29.89,SE,134,1.0,3.0,86,0.00,,,0.00,weatherlink.com 1.10,2013-11-15 13:10:00,
2013-11-15 08:25:00,41.5,37.0,29.90,SSW,196,2.0,4.0,85,0.00,,,0.00,weatherlink.com 1.10,2013-11-15 13:25:00,
2013-11-15 08:40:00,41.6,37.0,29.90,SSW,202,0.0,4.0,85,0.00,,,0.00,weatherlink.com 1.10,2013-11-15 13:40:00,
2013-11-15 08:55:00,42.4,38.0,29.90,SSE,157,1.0,4.0,84,0.00,,,0.00,weatherlink.com 1.10,2013-11-15 13:55:00,
2013-11-15 09:10:00,42.8,38.0,29.90,South,171,1.0,6.0,82,0.00,,,0.00,weatherlink.com 1.10,2013-11-15 14:10:00,
2013-11-15 09:25:00,42.8,37.0,29.90,SSE,156,2.0,7.0,81,0.00,,,0.00,weatherlink.com 1.10,2013-11-15 14:25:00,
2013-11-15 09:40:00,43.0,38.0,29.90,South,169,2.0,7.0,81,0.00,,,0.00,weatherlink.com 1.10,2013-11-15 14:40:00,
2013-11-15 09:55:00,43.7,38.0,29.90,South,191,6.0,10.0,79,0.00,,,0.00,weatherlink.com 1.10,2013-11-15 14:55:00,
2013-11-15 10:10:00,44.2,38.0,29.90,SW,226,4.0,13.0,78,0.00,,,0.00,weatherlink.com 1.10,2013-11-15 15:10:00,
2013-11-15 10:25:00,44.5,38.0,29.90,SW,223,3.0,9.0,78,0.00,,,0.00,weatherlink.com 1.10,2013-11-15 15:25:00,
2013-11-15 10:40:00,44.3,38.0,29.91,SSW,211,5.0,11.0,78,0.00,,,0.00,weatherlink.com 1.10,2013-11-15 15:40:00,
2013-11-15 10:55:00,44.2,38.0,29.91,SSW,205,8.0,10.0,78,0.00,,,0.00,weatherlink.com 1.10,2013-11-15 15:55:00,
2013-11-15 11:10:00,44.2,38.0,29.91,SSW,200,5.0,9.0,79,0.00,,,0.00,weatherlink.com 1.10,2013-11-15 16:10:00,
2013-11-15 11:25:00,44.4,38.0,29.91,SW,219,1.0,11.0,79,0.00,,,0.00,weatherlink.com 1.10,2013-11-15 16:25:00,
2013-11-15 11:40:00,44.6,38.0,29.91,SSW,211,6.0,9.0,78,0.00,,,0.00,weatherlink.com 1.10,2013-11-15 16:40:00,
2013-11-15 11:55:00,44.7,38.0,29.90,SSE,161,2.0,8.0,78,0.00,,,0.00,weatherlink.com 1.10,2013-11-15 16:55:00,
2013-11-15 12:10:00,44.8,39.0,29.90,SSW,203,1.0,10.0,79,0.00,,,0.00,weatherlink.com 1.10,2013-11-15 17:10:00,
2013-11-15 12:25:00,45.3,39.0,29.91,SSW,198,6.0,10.0,78,0.00,,,0.00,weatherlink.com 1.10,2013-11-15 17:25:00,
2013-11-15 12:40:00,45.1,38.0,29.90,SSW,211,8.0,12.0,77,0.00,,,0.00,weatherlink.com 1.10,2013-11-15 17:40:00,
2013-11-15 12:55:00,45.2,39.0,29.90,SW,225,2.0,7.0,78,0.00,,,0.00,weatherlink.com 1.10,2013-11-15 17:55:00,
2013-11-15 13:10:00,46.0,39.0,29.90,SSW,194,6.0,15.0,76,0.00,,,0.00,weatherlink.com 1.10,2013-11-15 18:10:00,
2013-11-15 13:25:00,46.5,39.0,29.90,SSW,197,4.0,11.0,75,0.00,,,0.00,weatherlink.com 1.10,2013-11-15 18:25:00,
2013-11-15 13:40:00,47.5,39.0,29.90,WSW,249,6.0,9.0,73,0.00,,,0.00,weatherlink.com 1.10,2013-11-15 18:40:00,
2013-11-15 13:55:00,47.8,39.0,29.89,WSW,240,6.0,10.0,72,0.00,,,0.00,weatherlink.com 1.10,2013-11-15 18:55:00,
2013-11-15 14:10:00,47.9,39.0,29.89,SSW,209,3.0,9.0,72,0.00,,,0.00,weatherlink.com 1.10,2013-11-15 19:10:00,
2013-11-15 14:25:00,48.1,39.0,29.89,SW,232,5.0,11.0,72,0.00,,,0.00,weatherlink.com 1.10,2013-11-15 19:25:00,
2013-11-15 14:40:00,48.2,39.0,29.89,South,188,4.0,10.0,71,0.00,,,0.00,weatherlink.com 1.10,2013-11-15 19:40:00,
2013-11-15 14:55:00,48.2,39.0,29.89,SSW,209,3.0,10.0,71,0.00,,,0.00,weatherlink.com 1.10,2013-11-15 19:55:00,
2013-11-15 15:10:00,48.5,39.0,29.89,SSE,165,3.0,7.0,71,0.00,,,0.00,weatherlink.com 1.10,2013-11-15 20:10:00,
2013-11-15 15:25:00,48.1,39.0,29.89,SSW,192,3.0,7.0,70,0.00,,,0.00,weatherlink.com 1.10,2013-11-15 20:25:00,
2013-11-15 15:40:00,46.6,39.0,29.89,SE,144,7.0,9.0,75,0.00,,,0.00,weatherlink.com 1.10,2013-11-15 20:40:00,
2013-11-15 15:55:00,45.6,39.0,29.89,SSE,157,1.0,9.0,77,0.00,,,0.00,weatherlink.com 1.10,2013-11-15 20:55:00,
2013-11-15 16:10:00,45.0,39.0,29.90,SSE,152,4.0,9.0,79,0.00,,,0.00,weatherlink.com 1.10,2013-11-15 21:10:00,
2013-11-15 16:25:00,44.3,39.0,29.90,SE,146,4.0,8.0,81,0.00,,,0.00,weatherlink.com 1.10,2013-11-15 21:25:00,
2013-11-15 16:40:00,43.6,39.0,29.91,SSE,167,2.0,5.0,83,0.00,,,0.00,weatherlink.com 1.10,2013-11-15 21:40:00,
2013-11-15 16:55:00,42.8,39.0,29.91,SSE,153,5.0,8.0,85,0.00,,,0.00,weatherlink.com 1.10,2013-11-15 21:55:00,
2013-11-15 17:10:00,42.2,39.0,29.91,SSE,148,4.0,6.0,87,0.00,,,0.00,weatherlink.com 1.10,2013-11-15 22:10:00,
2013-11-15 17:25:00,42.0,38.0,29.91,South,175,2.0,8.0,87,0.00,,,0.00,weatherlink.com 1.10,2013-11-15 22:25:00,
2013-11-15 17:40:00,42.2,39.0,29.91,SSE,149,5.0,7.0,87,0.00,,,0.00,weatherlink.com 1.10,2013-11-15 22:40:00,
2013-11-15 17:56:00,42.0,39.0,29.92,SE,143,3.0,7.0,88,0.00,,,0.00,weatherlink.com 1.10,2013-11-15 22:56:00,
2013-11-15 18:11:00,41.6,39.0,29.92,SSE,159,2.0,4.0,89,0.00,,,0.00,weatherlink.com 1.10,2013-11-15 23:11:00,
2013-11-15 18:26:00,41.5,39.0,29.92,SE,146,2.0,8.0,91,0.00,,,0.00,weatherlink.com 1.10,2013-11-15 23:26:00,
2013-11-15 18:41:00,41.1,39.0,29.93,SSE,153,1.0,4.0,91,0.00,,,0.00,weatherlink.com 1.10,2013-11-15 23:41:00,
2013-11-15 18:56:00,40.8,39.0,29.93,SE,144,2.0,4.0,92,0.00,,,0.00,weatherlink.com 1.10,2013-11-15 23:56:00,
2013-11-15 19:11:00,40.6,39.0,29.93,SE,146,3.0,5.0,93,0.00,,,0.00,weatherlink.com 1.10,2013-11-16 00:11:00,
2013-11-15 19:26:00,40.4,39.0,29.93,SSE,148,4.0,5.0,93,0.00,,,0.00,weatherlink.com 1.10,2013-11-16 00:26:00,
2013-11-15 19:41:00,40.2,39.0,29.93,SSE,151,3.0,7.0,94,0.00,,,0.00,weatherlink.com 1.10,2013-11-16 00:41:00,
2013-11-15 19:56:00,40.2,39.0,29.93,SE,137,3.0,4.0,94,0.00,,,0.00,weatherlink.com 1.10,2013-11-16 00:56:00,
2013-11-15 20:26:00,39.6,38.0,29.93,SE,146,3.0,3.0,94,0.00,,,0.00,weatherlink.com 1.10,2013-11-16 01:26:00,
2013-11-15 20:41:00,39.5,38.0,29.93,SSE,161,1.0,4.0,95,0.00,,,0.00,weatherlink.com 1.10,2013-11-16 01:41:00,
2013-11-15 20:56:00,39.4,38.0,29.94,SSE,151,0.0,2.0,95,0.00,,,0.00,weatherlink.com 1.10,2013-11-16 01:56:00,
2013-11-15 21:11:00,39.2,38.0,29.94,SSE,152,2.0,4.0,95,0.00,,,0.00,weatherlink.com 1.10,2013-11-16 02:11:00,
2013-11-15 21:26:00,39.7,38.0,29.94,SSE,157,1.0,3.0,95,0.00,,,0.00,weatherlink.com 1.10,2013-11-16 02:26:00,
2013-11-15 21:41:00,39.3,38.0,29.94,SSE,162,1.0,2.0,95,0.00,,,0.00,weatherlink.com 1.10,2013-11-16 02:41:00,
2013-11-15 21:57:00,38.1,37.0,29.94,SSE,162,0.0,1.0,94,0.00,,,0.00,weatherlink.com 1.10,2013-11-16 02:57:00,
2013-11-15 22:12:00,37.0,36.0,29.95,SSE,159,0.0,0.0,94,0.00,,,0.00,weatherlink.com 1.10,2013-11-16 03:12:00,
2013-11-15 22:27:00,36.2,35.0,29.95,SSE,159,0.0,0.0,95,0.00,,,0.00,weatherlink.com 1.10,2013-11-16 03:27:00,
2013-11-15 22:42:00,35.6,34.0,29.96,SSE,163,2.0,2.0,94,0.00,,,0.00,weatherlink.com 1.10,2013-11-16 03:42:00,
2013-11-15 22:57:00,35.5,34.0,29.96,SSW,198,2.0,4.0,95,0.00,,,0.00,weatherlink.com 1.10,2013-11-16 03:57:00,
2013-11-15 23:12:00,37.2,36.0,29.96,SSW,200,4.0,5.0,96,0.00,,,0.00,weatherlink.com 1.10,2013-11-16 04:12:00,
2013-11-15 23:27:00,38.6,37.0,29.96,South,182,2.0,5.0,94,0.00,,,0.00,weatherlink.com 1.10,2013-11-16 04:27:00,
2013-11-15 23:42:00,38.7,37.0,29.97,SSE,165,1.0,3.0,92,0.00,,,0.00,weatherlink.com 1.10,2013-11-16 04:42:00,
2013-11-15 23:57:00,38.7,37.0,29.97,SSE,165,1.0,3.0,92,0.00,,,0.00,weatherlink.com 1.10,2013-11-16 04:57:00,